Time;durP1;ratioP1;P1;durP2;ratioP2;P2;SDS_P1;SDS_P2;PMS_P1;PMS_P2;Temp;Humidity;BMP_temperature;BMP_pressure;BME280_temperature;BME280_humidity;BME280_pressure;Samples;Min_cycle;Max_cycle;Signal;HPM_P1;HPM_P2
2022/06/20 00:01:25;;;;;;;0.10;0.10;;;14.80;99.90;;;;;;4914157;29;20036;-68
2022/06/20 00:03:52;;;;;;;0.10;0.10;;;14.80;99.90;;;;;;4911585;29;20052;-68
2022/06/20 00:06:20;;;;;;;0.10;0.10;;;14.90;99.90;;;;;;4914015;29;20052;-68
2022/06/20 00:08:49;;;;;;;0.10;0.10;;;14.80;99.90;;;;;;4914225;29;20370;-68
2022/06/20 00:11:18;;;;;;;0.00;0.00;;;14.70;99.90;;;;;;4912426;29;20047;-68
2022/06/20 00:13:47;;;;;;;5.30;0.73;;;14.70;99.90;;;;;;4911199;29;20051;-68
2022/06/20 00:16:15;;;;;;;0.08;0.08;;;14.70;99.90;;;;;;4913811;29;20494;-68
2022/06/20 00:18:41;;;;;;;0.82;0.45;;;14.60;99.90;;;;;;4914226;29;20079;-68
2022/06/20 00:21:11;;;;;;;0.00;0.00;;;14.60;99.90;;;;;;4893880;29;20530;-68
2022/06/20 00:23:37;;;;;;;0.10;0.10;;;14.60;99.90;;;;;;4900139;29;20488;-68
2022/06/20 00:26:02;;;;;;;0.45;0.35;;;14.60;99.90;;;;;;4913436;29;20047;-68
2022/06/20 00:28:28;;;;;;;0.30;0.30;;;14.60;99.90;;;;;;4902761;29;20044;-68
2022/06/20 00:30:53;;;;;;;0.10;0.10;;;14.60;99.90;;;;;;4898639;29;20119;-68
2022/06/20 00:33:19;;;;;;;0.55;0.55;;;14.50;99.90;;;;;;4896128;29;20060;-68
2022/06/20 00:35:45;;;;;;;0.10;0.10;;;14.50;99.90;;;;;;4912995;29;21149;-68
2022/06/20 00:38:17;;;;;;;0.10;0.10;;;14.50;99.90;;;;;;4913519;29;20066;-69
2022/06/20 00:40:47;;;;;;;3.03;1.10;;;14.50;99.90;;;;;;4900987;29;20610;-68
2022/06/20 00:43:19;;;;;;;0.10;0.10;;;14.50;99.90;;;;;;4898807;29;20127;-68
2022/06/20 00:45:49;;;;;;;0.10;0.10;;;14.50;99.90;;;;;;4897349;29;20497;-69
2022/06/20 00:48:34;;;;;;;0.10;0.10;;;14.40;99.90;;;;;;4898378;29;20056;-68
2022/06/20 00:51:08;;;;;;;0.10;0.10;;;14.40;99.90;;;;;;4897821;29;20056;-68
2022/06/20 00:53:41;;;;;;;0.00;0.00;;;14.30;99.90;;;;;;4897086;29;20263;-68
2022/06/20 00:56:25;;;;;;;1.02;0.85;;;14.30;99.90;;;;;;4899130;29;20053;-68
2022/06/20 00:58:58;;;;;;;0.00;0.00;;;14.30;99.90;;;;;;4898794;29;20052;-68
2022/06/20 01:01:40;;;;;;;;;;;14.30;99.90;;;;;;4900885;29;20051;-69
2022/06/20 01:04:21;;;;;;;8.10;1.27;;;14.30;99.90;;;;;;4913971;29;21011;-68
2022/06/20 01:06:54;;;;;;;0.10;0.10;;;14.30;99.90;;;;;;4894353;29;20056;-68
2022/06/20 01:09:24;;;;;;;0.30;0.30;;;14.30;99.90;;;;;;4911962;29;20056;-67
2022/06/20 01:11:53;;;;;;;0.25;0.25;;;14.30;99.90;;;;;;4916297;29;20048;-68
2022/06/20 01:14:34;;;;;;;0.08;0.08;;;14.30;99.90;;;;;;4907516;29;20052;-68
2022/06/20 01:17:04;;;;;;;0.10;0.10;;;14.20;99.90;;;;;;4896947;29;20100;-68
2022/06/20 01:19:40;;;;;;;0.00;0.00;;;14.10;99.90;;;;;;4907739;29;20055;-68
2022/06/20 01:22:34;;;;;;;0.10;0.10;;;14.10;99.90;;;;;;4915137;29;20523;-68
2022/06/20 01:25:31;;;;;;;0.10;0.10;;;14.10;99.90;;;;;;4912163;29;20054;-68
2022/06/20 01:27:59;;;;;;;0.10;0.10;;;14.10;99.90;;;;;;4915812;29;20056;-68
2022/06/20 01:30:29;;;;;;;0.10;0.10;;;14.00;99.90;;;;;;4915628;29;20084;-68
2022/06/20 01:32:56;;;;;;;0.00;0.00;;;13.90;99.90;;;;;;4912334;29;20135;-68
2022/06/20 01:38:11;;;;;;;0.00;0.00;;;13.80;99.90;;;;;;4897771;29;20049;-68
2022/06/20 01:40:37;;;;;;;1.00;0.70;;;13.80;99.90;;;;;;4903136;29;20094;-68
2022/06/20 01:43:03;;;;;;;0.00;0.00;;;13.80;99.90;;;;;;4897482;29;20044;-68
2022/06/20 01:48:15;;;;;;;0.08;0.08;;;13.80;99.90;;;;;;4896137;29;20132;-68
2022/06/20 01:50:43;;;;;;;2.88;1.38;;;13.80;99.90;;;;;;4895865;29;20041;-68
2022/06/20 01:53:12;;;;;;;0.00;0.00;;;13.60;99.90;;;;;;4896150;29;20477;-68
2022/06/20 01:55:41;;;;;;;0.10;0.10;;;13.60;99.90;;;;;;4901426;29;20552;-69
2022/06/20 01:58:25;;;;;;;0.17;0.17;;;13.50;99.90;;;;;;4897471;29;20052;-68
2022/06/20 02:00:51;;;;;;;0.10;0.10;;;13.60;99.90;;;;;;4905747;29;20051;-68
2022/06/20 02:03:19;;;;;;;0.00;0.00;;;13.60;99.90;;;;;;4912444;29;20454;-69
2022/06/20 02:05:48;;;;;;;0.00;0.00;;;13.50;99.90;;;;;;4898127;29;20123;-68
2022/06/20 02:08:18;;;;;;;0.22;0.22;;;13.40;99.90;;;;;;4894067;29;20040;-68
2022/06/20 02:10:59;;;;;;;0.20;0.20;;;13.40;99.90;;;;;;4895403;29;20049;-69
2022/06/20 02:13:27;;;;;;;0.10;0.10;;;13.40;99.90;;;;;;4895944;29;20485;-68
2022/06/20 02:15:58;;;;;;;0.32;0.32;;;13.40;99.90;;;;;;4913639;29;20044;-68
2022/06/20 02:18:26;;;;;;;0.20;0.20;;;13.50;99.90;;;;;;4909517;29;20104;-68
2022/06/20 02:20:55;;;;;;;0.65;0.65;;;13.50;99.90;;;;;;4896929;29;20045;-68
2022/06/20 02:23:29;;;;;;;1.27;1.20;;;13.60;99.90;;;;;;4894741;29;20104;-68
2022/06/20 02:25:56;;;;;;;0.10;0.10;;;13.70;99.90;;;;;;4908972;29;20731;-69
2022/06/20 02:28:38;;;;;;;0.17;0.17;;;13.70;99.90;;;;;;4915485;29;20067;-69
2022/06/20 02:31:06;;;;;;;0.85;0.57;;;13.70;99.90;;;;;;4915020;29;20044;-68
2022/06/20 02:33:32;;;;;;;0.60;0.55;;;13.70;99.90;;;;;;4912651;29;20048;-69
2022/06/20 02:36:00;;;;;;;0.00;0.00;;;13.70;99.90;;;;;;4907495;29;20512;-69
2022/06/20 02:38:27;;;;;;;0.10;0.10;;;13.70;99.90;;;;;;4895844;29;20046;-68
2022/06/20 02:40:55;;;;;;;0.17;0.17;;;13.70;99.90;;;;;;4914476;29;20078;-69
2022/06/20 02:43:38;;;;;;;0.22;0.22;;;13.70;99.90;;;;;;4913100;29;20130;-68
2022/06/20 02:46:09;;;;;;;0.20;0.20;;;13.60;99.90;;;;;;4914045;29;20051;-68
2022/06/20 02:48:37;;;;;;;0.10;0.10;;;13.60;99.90;;;;;;4911050;29;20048;-68
2022/06/20 02:51:06;;;;;;;0.40;0.40;;;13.60;99.90;;;;;;4914598;29;20086;-68
2022/06/20 02:53:55;;;;;;;0.20;0.20;;;13.50;99.90;;;;;;4912505;29;20040;-68
2022/06/20 02:56:22;;;;;;;0.00;0.00;;;13.50;99.90;;;;;;4915097;29;20047;-68
2022/06/20 02:58:52;;;;;;;0.25;0.25;;;13.40;99.90;;;;;;4913345;29;20139;-69
2022/06/20 03:01:38;;;;;;;0.10;0.10;;;13.30;99.90;;;;;;4912714;29;20135;-68
2022/06/20 03:04:07;;;;;;;0.00;0.00;;;13.20;99.90;;;;;;4915034;29;20441;-68
2022/06/20 03:06:37;;;;;;;0.10;0.10;;;13.20;99.90;;;;;;4914627;29;20088;-68
2022/06/20 03:09:03;;;;;;;0.28;0.28;;;13.10;99.90;;;;;;4913893;29;20084;-69
2022/06/20 03:11:34;;;;;;;0.10;0.10;;;13.10;99.90;;;;;;4911991;29;20051;-68
2022/06/20 03:14:03;;;;;;;0.10;0.10;;;13.00;99.90;;;;;;4914362;29;20481;-68
2022/06/20 03:16:29;;;;;;;0.00;0.00;;;12.90;99.90;;;;;;4914968;29;20052;-69
2022/06/20 03:18:57;;;;;;;0.00;0.00;;;12.90;99.90;;;;;;4914350;29;20044;-69
2022/06/20 03:21:27;;;;;;;0.00;0.00;;;12.80;99.90;;;;;;4910650;29;20131;-68
2022/06/20 03:23:53;;;;;;;0.55;0.38;;;12.80;99.90;;;;;;4914786;29;20098;-68
2022/06/20 03:26:26;;;;;;;0.00;0.00;;;12.80;99.90;;;;;;4912790;29;20072;-68
2022/06/20 03:28:53;;;;;;;1.45;0.63;;;12.70;99.90;;;;;;4912794;29;20095;-68
2022/06/20 03:31:19;;;;;;;0.10;0.10;;;12.70;99.90;;;;;;4897311;29;20101;-69
2022/06/20 03:33:46;;;;;;;0.10;0.10;;;12.70;99.90;;;;;;4895185;29;20049;-69
2022/06/20 03:36:22;;;;;;;0.50;0.50;;;12.70;99.90;;;;;;4894081;29;20450;-68
2022/06/20 03:38:49;;;;;;;0.30;0.30;;;12.60;99.90;;;;;;4895228;29;20104;-68
2022/06/20 03:41:18;;;;;;;0.20;0.20;;;12.60;99.90;;;;;;4896193;29;20489;-68
2022/06/20 03:43:51;;;;;;;1.38;0.75;;;12.60;99.90;;;;;;4902452;29;20052;-68
2022/06/20 03:46:22;;;;;;;0.10;0.10;;;12.60;99.90;;;;;;4913220;29;20044;-69
2022/06/20 03:49:15;;;;;;;0.10;0.10;;;12.60;99.90;;;;;;4912789;29;20055;-68
2022/06/20 03:51:52;;;;;;;0.45;0.45;;;12.70;99.90;;;;;;4910222;29;20059;-68
2022/06/20 03:54:30;;;;;;;1.08;0.47;;;12.70;99.90;;;;;;4894802;29;20533;-69
2022/06/20 03:57:06;;;;;;;0.00;0.00;;;12.70;99.90;;;;;;4895008;29;20059;-68
2022/06/20 03:59:39;;;;;;;0.10;0.10;;;12.70;99.90;;;;;;4900531;29;20051;-69
2022/06/20 04:02:14;;;;;;;0.10;0.10;;;12.80;99.90;;;;;;4912311;29;20052;-69
2022/06/20 04:05:06;;;;;;;0.40;0.40;;;12.80;99.90;;;;;;4897618;29;20056;-68
2022/06/20 04:07:39;;;;;;;0.00;0.00;;;12.80;99.90;;;;;;4900877;29;20378;-68
2022/06/20 04:13:31;;;;;;;0.30;0.22;;;12.90;99.90;;;;;;4914407;29;20048;-69
2022/06/20 04:16:03;;;;;;;0.10;0.10;;;12.90;99.90;;;;;;4907800;29;20539;-69
2022/06/20 04:18:46;;;;;;;0.10;0.10;;;12.90;99.90;;;;;;4914187;29;20437;-68
2022/06/20 04:21:32;;;;;;;0.00;0.00;;;13.00;99.90;;;;;;4914155;29;20158;-69
2022/06/20 04:24:35;;;;;;;0.30;0.30;;;13.00;99.90;;;;;;4909731;29;20087;-68
2022/06/20 04:27:07;;;;;;;0.25;0.25;;;13.10;99.90;;;;;;4913750;29;20052;-68
2022/06/20 04:29:50;;;;;;;0.30;0.30;;;13.10;99.90;;;;;;4912233;29;20056;-68
2022/06/20 04:32:39;;;;;;;26.88;1.23;;;13.20;99.90;;;;;;4900329;29;20044;-68
2022/06/20 04:35:13;;;;;;;0.10;0.10;;;13.20;99.90;;;;;;4894797;29;20521;-68
2022/06/20 04:37:45;;;;;;;0.10;0.10;;;13.20;99.90;;;;;;4893019;29;20119;-68
2022/06/20 04:40:19;;;;;;;0.10;0.10;;;13.30;99.90;;;;;;4897166;29;20062;-68
2022/06/20 04:42:56;;;;;;;0.10;0.10;;;13.40;99.90;;;;;;4895140;29;20096;-68
2022/06/20 04:45:28;;;;;;;0.93;0.85;;;13.50;99.90;;;;;;4894329;29;20049;-69
2022/06/20 04:48:14;;;;;;;0.88;0.40;;;13.60;99.90;;;;;;4894176;29;20099;-68
2022/06/20 04:50:52;;;;;;;0.30;0.30;;;13.50;99.90;;;;;;4911500;29;20056;-68
2022/06/20 04:53:21;;;;;;;0.10;0.10;;;13.60;99.90;;;;;;4912487;29;20052;-68
2022/06/20 04:55:56;;;;;;;0.10;0.10;;;13.60;99.90;;;;;;4914194;29;20052;-68
2022/06/20 04:58:31;;;;;;;0.20;0.20;;;13.70;99.90;;;;;;4910537;29;20063;-69
2022/06/20 05:00:57;;;;;;;0.10;0.10;;;13.70;99.90;;;;;;4912444;29;20099;-68
2022/06/20 05:03:27;;;;;;;0.35;0.35;;;13.80;99.90;;;;;;4913726;29;20523;-68
2022/06/20 05:05:56;;;;;;;0.00;0.00;;;13.80;99.90;;;;;;4908722;29;20103;-68
2022/06/20 05:08:35;;;;;;;0.10;0.10;;;13.80;99.90;;;;;;4910010;29;20131;-68
2022/06/20 05:11:06;;;;;;;0.10;0.10;;;13.80;99.90;;;;;;4913628;29;20060;-69
2022/06/20 05:14:11;;;;;;;0.00;0.00;;;13.90;99.90;;;;;;4907126;29;20051;-69
2022/06/20 05:16:43;;;;;;;0.00;0.00;;;14.00;99.90;;;;;;4880852;29;20060;-69
2022/06/20 05:19:15;;;;;;;0.20;0.20;;;14.10;99.90;;;;;;4895320;29;20062;-69
2022/06/20 05:21:44;;;;;;;0.10;0.10;;;14.20;99.90;;;;;;4897293;29;20445;-69
2022/06/20 05:24:16;;;;;;;0.00;0.00;;;14.20;99.90;;;;;;4898097;29;20049;-69
2022/06/20 05:26:46;;;;;;;0.10;0.10;;;14.30;99.90;;;;;;4897486;29;20058;-68
2022/06/20 05:29:17;;;;;;;0.88;0.88;;;14.30;99.90;;;;;;4898039;29;20040;-68
2022/06/20 05:31:46;;;;;;;0.52;0.52;;;14.40;99.90;;;;;;4896629;29;20168;-68
2022/06/20 05:34:35;;;;;;;0.00;0.00;;;14.40;99.90;;;;;;4901497;29;20056;-68
2022/06/20 05:37:10;;;;;;;0.20;0.20;;;14.40;99.90;;;;;;4915921;29;20060;-68
2022/06/20 05:39:50;;;;;;;0.10;0.10;;;14.50;99.90;;;;;;4913079;29;20484;-68
2022/06/20 05:42:17;;;;;;;0.10;0.10;;;14.60;99.90;;;;;;4916234;29;20052;-68
2022/06/20 05:44:44;;;;;;;0.10;0.10;;;14.60;99.90;;;;;;4915528;29;20054;-68
2022/06/20 05:47:22;;;;;;;0.10;0.10;;;14.60;99.90;;;;;;4916310;29;20040;-68
2022/06/20 05:50:13;;;;;;;0.00;0.00;;;14.70;99.90;;;;;;4911548;29;20060;-68
2022/06/20 05:52:40;;;;;;;0.28;0.28;;;14.80;99.90;;;;;;4906685;29;20060;-68
2022/06/20 05:55:26;;;;;;;0.00;0.00;;;14.80;99.90;;;;;;4909833;29;20063;-69
2022/06/20 05:57:54;;;;;;;0.20;0.20;;;14.80;99.90;;;;;;4916464;29;20063;-68
2022/06/20 06:00:22;;;;;;;1.65;1.55;;;14.80;99.90;;;;;;4914661;29;20123;-68
2022/06/20 06:02:53;;;;;;;0.10;0.10;;;14.70;99.90;;;;;;4915071;29;20084;-68
2022/06/20 06:05:26;;;;;;;0.00;0.00;;;14.70;99.90;;;;;;4897623;29;20048;-68
2022/06/20 06:08:00;;;;;;;0.10;0.10;;;14.80;99.90;;;;;;4897202;29;20486;-68
2022/06/20 06:10:51;;;;;;;0.00;0.00;;;14.90;99.90;;;;;;4897370;29;20080;-69
2022/06/20 06:13:39;;;;;;;0.10;0.10;;;15.00;99.90;;;;;;4897535;29;20067;-68
2022/06/20 06:19:07;;;;;;;0.20;0.20;;;15.20;99.90;;;;;;4897200;29;20060;-69
2022/06/20 06:21:34;;;;;;;0.20;0.20;;;15.40;99.90;;;;;;4895589;29;20193;-68
2022/06/20 06:24:01;;;;;;;0.00;0.00;;;15.50;99.90;;;;;;4895449;29;20053;-68
2022/06/20 06:26:26;;;;;;;0.10;0.10;;;15.60;99.90;;;;;;4897100;29;20090;-69
2022/06/20 06:28:53;;;;;;;0.00;0.00;;;15.70;99.90;;;;;;4913990;29;20099;-68
2022/06/20 06:31:26;;;;;;;0.10;0.10;;;15.70;99.90;;;;;;4915161;29;20048;-68
2022/06/20 06:33:56;;;;;;;0.50;0.50;;;15.80;99.90;;;;;;4911684;29;20044;-68
2022/06/20 06:36:25;;;;;;;0.00;0.00;;;15.80;99.90;;;;;;4894846;29;20412;-69
2022/06/20 06:39:03;;;;;;;0.85;0.82;;;15.80;99.90;;;;;;4898417;29;20053;-69
2022/06/20 06:41:34;;;;;;;0.20;0.20;;;15.80;99.90;;;;;;4911043;29;20586;-68
2022/06/20 06:44:04;;;;;;;0.05;0.05;;;15.70;99.90;;;;;;4894284;29;20053;-69
2022/06/20 06:46:41;;;;;;;0.10;0.10;;;15.80;99.90;;;;;;4895802;29;20045;-68
2022/06/20 06:49:31;;;;;;;0.10;0.10;;;15.80;99.90;;;;;;4896069;29;20051;-69
2022/06/20 06:52:29;;;;;;;0.10;0.10;;;15.80;99.90;;;;;;4897070;29;20155;-68
2022/06/20 06:55:05;;;;;;;0.10;0.10;;;15.80;99.90;;;;;;4896639;29;20053;-68
2022/06/20 06:57:38;;;;;;;0.10;0.10;;;15.70;99.90;;;;;;4893174;29;20048;-69
2022/06/20 07:00:04;;;;;;;0.10;0.10;;;15.80;99.90;;;;;;4895877;29;20048;-69
2022/06/20 07:02:38;;;;;;;0.08;0.08;;;15.80;99.90;;;;;;4895056;29;20374;-69
2022/06/20 07:05:35;;;;;;;0.10;0.10;;;15.90;99.90;;;;;;4900300;29;20067;-69
2022/06/20 07:08:14;;;;;;;0.10;0.10;;;15.90;99.90;;;;;;4913705;29;20044;-69
2022/06/20 07:11:21;;;;;;;0.20;0.20;;;15.90;99.90;;;;;;4914783;29;20047;-68
2022/06/20 07:14:17;;;;;;;0.00;0.00;;;16.10;99.90;;;;;;4912901;29;20044;-69
2022/06/20 07:17:05;;;;;;;0.55;0.55;;;16.20;99.90;;;;;;4914464;29;20048;-68
2022/06/20 07:19:30;;;;;;;0.80;0.80;;;16.30;99.90;;;;;;4914162;29;20044;-68
2022/06/20 07:21:58;;;;;;;0.25;0.25;;;16.30;99.90;;;;;;4912146;29;20173;-69
2022/06/20 07:24:27;;;;;;;0.10;0.10;;;16.30;99.90;;;;;;4913121;29;20056;-69
2022/06/20 07:27:11;;;;;;;0.10;0.10;;;16.10;99.90;;;;;;4912262;29;20120;-69
2022/06/20 07:29:47;;;;;;;0.10;0.10;;;16.00;99.90;;;;;;4924519;29;20048;-69
2022/06/20 07:32:19;;;;;;;0.10;0.10;;;16.00;99.90;;;;;;4909373;29;20057;-69
2022/06/20 07:34:57;;;;;;;0.38;0.30;;;16.20;99.90;;;;;;4894420;29;20053;-69
2022/06/20 07:37:34;;;;;;;0.00;0.00;;;16.30;99.90;;;;;;4893897;29;20524;-70
2022/06/20 07:40:02;;;;;;;0.20;0.20;;;16.30;99.90;;;;;;4901143;29;20410;-69
2022/06/20 07:42:45;;;;;;;0.20;0.20;;;16.30;99.90;;;;;;4909209;29;20052;-69
2022/06/20 07:45:18;;;;;;;0.10;0.10;;;16.40;99.90;;;;;;4909696;29;20056;-69
2022/06/20 07:48:05;;;;;;;0.00;0.00;;;16.40;99.90;;;;;;4913861;29;20055;-69
2022/06/20 07:50:36;;;;;;;0.10;0.10;;;16.40;99.90;;;;;;4909299;29;20501;-69
2022/06/20 07:53:12;;;;;;;0.10;0.10;;;16.40;99.90;;;;;;4908639;29;20143;-69
2022/06/20 07:55:44;;;;;;;0.10;0.10;;;16.50;99.90;;;;;;4911291;29;22966;-70
2022/06/20 07:58:18;;;;;;;9.32;0.95;;;16.60;99.90;;;;;;4912436;29;20070;-69
2022/06/20 08:00:49;;;;;;;0.00;0.00;;;16.70;99.90;;;;;;4913633;29;20044;-69
2022/06/20 08:03:24;;;;;;;0.10;0.10;;;16.70;99.90;;;;;;4912817;29;20060;-69
2022/06/20 08:06:01;;;;;;;0.10;0.10;;;16.70;99.90;;;;;;4910146;29;20048;-69
2022/06/20 08:08:46;;;;;;;0.00;0.00;;;16.70;99.90;;;;;;4911970;29;20511;-69
2022/06/20 08:11:40;;;;;;;0.00;0.00;;;16.80;99.90;;;;;;4912580;29;20052;-70
2022/06/20 08:14:13;;;;;;;0.22;0.22;;;16.90;99.90;;;;;;4906060;29;20571;-69
2022/06/20 08:16:39;;;;;;;0.10;0.10;;;16.70;99.90;;;;;;4894695;29;20077;-69
2022/06/20 08:19:06;;;;;;;0.43;0.20;;;16.90;99.90;;;;;;4894989;29;20311;-70
2022/06/20 08:21:40;;;;;;;1.17;0.70;;;16.70;99.90;;;;;;4907748;29;20063;-69
2022/06/20 08:24:30;;;;;;;0.55;0.55;;;16.70;99.90;;;;;;4914081;29;20056;-69
2022/06/20 08:27:08;;;;;;;0.00;0.00;;;16.80;99.90;;;;;;4911554;29;20048;-69
2022/06/20 08:29:42;;;;;;;0.10;0.10;;;16.90;99.90;;;;;;4906862;29;20165;-70
2022/06/20 08:32:29;;;;;;;0.32;0.25;;;16.90;99.90;;;;;;4902797;29;20579;-70
2022/06/20 08:35:12;;;;;;;0.10;0.10;;;16.70;99.90;;;;;;4913885;29;20056;-70
2022/06/20 08:37:44;;;;;;;0.00;0.00;;;16.80;99.90;;;;;;4912232;29;20711;-70
2022/06/20 08:40:30;;;;;;;0.40;0.40;;;16.90;99.90;;;;;;4910291;29;20157;-70
2022/06/20 08:43:05;;;;;;;0.00;0.00;;;17.00;99.90;;;;;;4913465;29;20158;-70
2022/06/20 08:45:50;;;;;;;0.20;0.20;;;17.00;99.90;;;;;;4908198;29;20047;-70
2022/06/20 08:48:48;;;;;;;0.00;0.00;;;17.00;99.90;;;;;;4914031;29;20060;-70
2022/06/20 08:52:06;;;;;;;0.10;0.10;;;17.00;99.90;;;;;;4914220;29;20052;-70
2022/06/20 08:54:49;;;;;;;0.10;0.10;;;16.90;99.90;;;;;;4917539;29;20052;-70
2022/06/20 08:57:27;;;;;;;0.00;0.00;;;17.30;99.90;;;;;;4913514;29;20079;-70
2022/06/20 09:00:03;;;;;;;2.85;0.63;;;17.10;99.90;;;;;;4914290;29;20127;-70
2022/06/20 09:02:40;;;;;;;0.00;0.00;;;17.00;99.90;;;;;;4916374;29;20505;-70
2022/06/20 09:05:32;;;;;;;0.10;0.10;;;17.10;99.90;;;;;;4915578;29;20532;-70
2022/06/20 09:07:58;;;;;;;0.17;0.17;;;17.30;99.90;;;;;;4911484;29;20453;-71
2022/06/20 09:10:38;;;;;;;0.10;0.10;;;17.40;99.90;;;;;;4915652;29;20055;-70
2022/06/20 09:13:36;;;;;;;0.10;0.10;;;17.40;99.90;;;;;;4917495;29;20060;-70
2022/06/20 09:16:13;;;;;;;0.00;0.00;;;17.50;99.90;;;;;;4905941;29;20056;-70
2022/06/20 09:19:15;;;;;;;0.10;0.10;;;17.60;99.90;;;;;;4896188;29;20108;-70
2022/06/20 09:22:01;;;;;;;0.00;0.00;;;17.80;99.90;;;;;;4903634;29;20079;-70
2022/06/20 09:24:32;;;;;;;3.70;0.95;;;17.90;99.90;;;;;;4915175;29;20405;-70
2022/06/20 09:27:18;;;;;;;0.28;0.28;;;18.00;99.90;;;;;;4897137;29;20055;-70
2022/06/20 09:30:08;;;;;;;0.20;0.17;;;17.80;99.90;;;;;;4896794;29;20494;-70
2022/06/20 09:32:52;;;;;;;0.30;0.30;;;17.60;99.90;;;;;;4908278;29;20048;-70
2022/06/20 09:35:47;;;;;;;0.13;0.13;;;17.40;99.90;;;;;;4914602;29;20091;-70
2022/06/20 09:38:16;;;;;;;2.25;0.85;;;17.40;99.90;;;;;;4914940;29;20108;-70
2022/06/20 09:41:01;;;;;;;0.10;0.10;;;17.40;99.90;;;;;;4904493;29;20643;-70
2022/06/20 09:43:39;;;;;;;0.10;0.10;;;17.70;99.90;;;;;;4896416;29;20094;-70
2022/06/20 09:46:40;;;;;;;0.00;0.00;;;18.00;99.90;;;;;;4897070;29;20051;-70
2022/06/20 09:49:18;;;;;;;0.22;0.22;;;18.50;99.90;;;;;;4859367;29;20136;-71
2022/06/20 09:52:02;;;;;;;0.73;0.73;;;18.90;99.90;;;;;;4891905;29;20099;-71
2022/06/20 09:54:40;;;;;;;0.20;0.20;;;18.80;99.90;;;;;;4895803;29;20066;-70
2022/06/20 09:57:11;;;;;;;0.00;0.00;;;19.00;99.90;;;;;;4896015;29;20060;-70
2022/06/20 09:59:54;;;;;;;0.00;0.00;;;19.30;99.90;;;;;;4897888;29;20059;-70
2022/06/20 10:02:29;;;;;;;1.08;1.00;;;19.20;99.90;;;;;;4897871;29;20104;-70
2022/06/20 10:05:19;;;;;;;0.00;0.00;;;18.70;99.90;;;;;;4916266;29;20444;-70
2022/06/20 10:07:54;;;;;;;0.82;0.82;;;18.40;99.90;;;;;;4912156;29;20067;-70
2022/06/20 10:10:32;;;;;;;0.05;0.05;;;18.60;99.90;;;;;;4913458;29;20052;-69
2022/06/20 10:13:25;;;;;;;0.10;0.10;;;19.10;99.90;;;;;;4912732;29;20056;-70
2022/06/20 10:16:05;;;;;;;0.00;0.00;;;19.50;99.90;;;;;;4898651;29;20404;-70
2022/06/20 10:18:47;;;;;;;0.10;0.10;;;19.80;99.90;;;;;;4895528;29;20056;-70
2022/06/20 10:21:50;;;;;;;0.00;0.00;;;19.70;99.90;;;;;;4896001;29;20044;-70
2022/06/20 10:24:27;;;;;;;2.20;1.27;;;20.00;99.90;;;;;;4895756;29;20099;-70
2022/06/20 10:26:58;;;;;;;0.00;0.00;;;19.90;99.90;;;;;;4897597;29;20048;-69
2022/06/20 10:29:55;;;;;;;0.03;0.03;;;19.80;99.90;;;;;;4914607;29;20805;-69
2022/06/20 10:32:39;;;;;;;0.00;0.00;;;19.70;99.90;;;;;;4899166;29;20052;-70
2022/06/20 10:35:17;;;;;;;0.40;0.40;;;20.10;99.90;;;;;;4894335;29;20060;-69
2022/06/20 10:38:09;;;;;;;0.20;0.20;;;20.40;99.90;;;;;;4896807;29;20409;-70
2022/06/20 10:40:47;;;;;;;0.00;0.00;;;20.10;99.90;;;;;;4898140;29;20132;-70
2022/06/20 10:43:41;;;;;;;0.43;0.43;;;20.10;99.90;;;;;;4895499;29;20128;-69
2022/06/20 10:46:22;;;;;;;0.00;0.00;;;20.30;99.90;;;;;;4914129;29;20103;-70
2022/06/20 10:49:15;;;;;;;0.00;0.00;;;20.40;99.90;;;;;;4914979;29;20090;-69
2022/06/20 10:52:10;;;;;;;0.00;0.00;;;20.20;99.90;;;;;;4890462;29;20405;-69
2022/06/20 10:54:56;;;;;;;0.10;0.10;;;19.90;99.90;;;;;;4907583;29;20056;-69
2022/06/20 10:57:42;;;;;;;0.20;0.20;;;19.80;99.90;;;;;;4914436;29;20048;-70
2022/06/20 11:00:12;;;;;;;0.30;0.30;;;19.50;99.90;;;;;;4910699;29;20051;-69
2022/06/20 11:03:19;;;;;;;0.35;0.35;;;19.20;99.90;;;;;;4914894;29;20048;-69
2022/06/20 11:06:08;;;;;;;2.20;1.27;;;18.80;99.90;;;;;;4914181;29;20139;-70
2022/06/20 11:08:48;;;;;;;0.05;0.05;;;18.70;99.90;;;;;;4911762;29;20055;-69
2022/06/20 11:11:39;;;;;;;0.10;0.10;;;18.60;99.90;;;;;;4914099;29;20059;-70
2022/06/20 11:14:40;;;;;;;0.00;0.00;;;18.50;99.90;;;;;;4910544;29;20051;-70
2022/06/20 11:17:36;;;;;;;0.10;0.10;;;18.40;99.90;;;;;;4913955;29;20409;-69
2022/06/20 11:20:12;;;;;;;0.63;0.43;;;18.30;99.90;;;;;;4884540;29;20072;-70
2022/06/20 11:22:47;;;;;;;0.00;0.00;;;18.50;99.90;;;;;;4913073;29;20050;-70
2022/06/20 11:25:42;;;;;;;0.10;0.10;;;18.60;99.90;;;;;;4911098;29;20044;-69
2022/06/20 11:28:39;;;;;;;0.10;0.10;;;18.80;99.90;;;;;;4894146;29;20056;-70
2022/06/20 11:31:25;;;;;;;1.05;0.45;;;19.10;99.90;;;;;;4895136;29;20053;-70
2022/06/20 11:34:26;;;;;;;0.00;0.00;;;18.70;99.90;;;;;;4895433;29;20409;-70
2022/06/20 11:37:31;;;;;;;0.08;0.08;;;18.50;99.90;;;;;;4909257;29;20094;-70
2022/06/20 11:40:25;;;;;;;0.30;0.30;;;18.90;99.90;;;;;;4913981;29;20099;-70
2022/06/20 11:43:30;;;;;;;0.00;0.00;;;19.00;99.90;;;;;;4910511;29;20448;-70
2022/06/20 11:46:32;;;;;;;0.10;0.10;;;18.80;99.90;;;;;;4893633;29;20095;-69
2022/06/20 11:49:12;;;;;;;0.32;0.32;;;19.10;99.90;;;;;;4894005;29;20768;-70
2022/06/20 11:51:53;;;;;;;0.20;0.20;;;19.30;99.90;;;;;;4902459;29;20493;-70
2022/06/20 11:54:37;;;;;;;0.00;0.00;;;19.20;99.90;;;;;;4894413;29;20044;-71
2022/06/20 11:57:30;;;;;;;0.10;0.10;;;19.50;99.90;;;;;;4897470;29;20055;-70
2022/06/20 12:00:04;;;;;;;0.00;0.00;;;19.80;99.90;;;;;;4913445;29;20507;-70
2022/06/20 12:02:52;;;;;;;0.00;0.00;;;19.30;99.90;;;;;;4912870;29;20063;-69
2022/06/20 12:05:18;;;;;;;0.00;0.00;;;19.30;99.90;;;;;;4902127;29;20048;-69
2022/06/20 12:07:56;;;;;;;0.00;0.00;;;19.90;99.90;;;;;;4893395;29;20052;-69
2022/06/20 12:10:51;;;;;;;0.00;0.00;;;20.40;99.90;;;;;;4894105;29;20049;-69
2022/06/20 12:13:29;;;;;;;0.10;0.10;;;20.80;99.90;;;;;;4892630;29;20819;-69
2022/06/20 12:16:13;;;;;;;0.03;0.03;;;20.50;99.90;;;;;;4911655;29;20067;-69
2022/06/20 12:24:29;;;;;;;0.05;0.05;;;21.10;99.90;;;;;;4896289;29;20060;-69
2022/06/20 12:26:55;;;;;;;0.20;0.20;;;20.90;99.90;;;;;;4900142;29;20067;-69
2022/06/20 12:29:24;;;;;;;0.10;0.10;;;20.30;99.90;;;;;;4899127;29;20378;-69
2022/06/20 12:31:57;;;;;;;0.20;0.20;;;20.00;99.90;;;;;;4912640;29;20086;-70
2022/06/20 12:35:11;;;;;;;0.00;0.00;;;19.50;99.90;;;;;;4919192;29;20056;-69
2022/06/20 12:37:43;;;;;;;0.17;0.17;;;19.40;99.90;;;;;;4909983;29;20412;-69
2022/06/20 12:40:11;;;;;;;0.17;0.17;;;19.20;99.90;;;;;;4903116;29;20052;-70
2022/06/20 12:42:56;;;;;;;0.10;0.10;;;20.00;99.90;;;;;;4900659;29;20057;-69
2022/06/20 12:45:56;;;;;;;0.30;0.30;;;19.90;99.90;;;;;;4901225;29;20401;-69
2022/06/20 12:48:47;;;;;;;0.90;0.90;;;19.60;99.90;;;;;;4899806;29;20587;-70
2022/06/20 12:51:32;;;;;;;1.25;0.75;;;20.30;99.90;;;;;;4900686;29;20875;-70
2022/06/20 12:53:58;;;;;;;0.25;0.25;;;20.90;99.90;;;;;;4915528;29;20048;-70
2022/06/20 12:56:37;;;;;;;0.10;0.10;;;21.30;99.90;;;;;;4917942;29;20056;-70
2022/06/20 12:59:37;;;;;;;0.00;0.00;;;21.10;99.90;;;;;;4914393;29;20052;-70
2022/06/20 13:02:25;;;;;;;0.00;0.00;;;21.40;99.90;;;;;;4913282;29;20092;-70
2022/06/20 13:05:23;;;;;;;0.00;0.00;;;21.50;99.90;;;;;;4920249;29;20404;-70
2022/06/20 13:08:16;;;;;;;0.20;0.20;;;21.50;99.90;;;;;;4900966;29;20049;-70
2022/06/20 13:10:51;;;;;;;0.00;0.00;;;20.90;99.90;;;;;;4897792;29;20044;-69
2022/06/20 13:13:52;;;;;;;0.00;0.00;;;21.30;99.90;;;;;;4899626;29;20056;-70
2022/06/20 13:16:51;;;;;;;0.00;0.00;;;21.90;99.90;;;;;;4918410;29;20067;-69
2022/06/20 13:19:32;;;;;;;0.00;0.00;;;22.30;99.90;;;;;;4917545;29;20400;-70
2022/06/20 13:22:03;;;;;;;0.00;0.00;;;21.80;99.90;;;;;;4917279;29;20055;-70
2022/06/20 13:24:57;;;;;;;0.75;0.75;;;22.30;99.90;;;;;;4917742;29;20050;-70
2022/06/20 13:27:45;;;;;;;0.47;0.47;;;22.40;99.90;;;;;;4914817;29;20044;-69
2022/06/20 13:30:13;;;;;;;0.13;0.13;;;22.50;99.90;;;;;;4916868;29;20052;-70
2022/06/20 13:33:03;;;;;;;0.10;0.10;;;22.50;99.90;;;;;;4918002;29;20052;-70
2022/06/20 13:35:54;;;;;;;0.10;0.10;;;22.10;99.90;;;;;;4913709;29;20066;-69
2022/06/20 13:38:28;;;;;;;0.20;0.20;;;21.10;99.90;;;;;;4914333;29;20092;-70
2022/06/20 13:41:06;;;;;;;1.20;1.10;;;20.90;99.90;;;;;;4916967;29;20043;-69
2022/06/20 13:43:55;;;;;;;0.17;0.17;;;21.00;99.90;;;;;;4900533;29;20051;-69
2022/06/20 13:46:28;;;;;;;0.10;0.10;;;20.70;99.90;;;;;;4895700;29;20052;-69
2022/06/20 13:48:54;;;;;;;;;;;20.40;99.90;;;;;;4899730;29;20057;-69
2022/06/20 13:51:40;;;;;;;0.17;0.17;;;20.20;99.90;;;;;;4897626;29;19927;-69
2022/06/20 13:54:17;;;;;;;0.00;0.00;;;20.50;99.90;;;;;;4897913;29;20128;-69
2022/06/20 13:57:06;;;;;;;0.80;0.43;;;20.40;99.90;;;;;;4898138;29;20051;-69
2022/06/20 13:59:45;;;;;;;0.00;0.00;;;20.80;99.90;;;;;;4911600;29;20056;-70
2022/06/20 14:02:32;;;;;;;0.13;0.13;;;21.20;99.90;;;;;;4915558;29;20048;-69